Share

Kennedy, MN (56733)

Hallock Municipal (KHCO) Elev 820 ft | 48.75 °N, 96.94 °W | Change Station
Active Advisory: Flood Warning

Current weather conditions updated 23 minutes ago

Overcast
Overcast
28 °F
Feels Like 21 °F
N
7
Wind Variable Wind from ESE
Sunrise 6:31 AM
Sunset 8:23 PM
Moon Waning Gibbous

Today is forecast to be Much Warmer than yesterday. Rain tonight.

Pressure 30.31 in
Visibility 10.0 miles
Clouds Overcast 9000 ft
Windchill 21 °F
Dew Point 18 °F
Humidity 64%
Rainfall 0.00 in
Snow Depth Not available.
UV 0 out of 16
Pollen 9.00 out of 12
Air Quality Not available.
Flu Activity Sporadic
METAR KHCO 181153Z AUTO 12006KT 10SM OVC090 M02/M08 A3031 RMK AO2

More Conditions Fewer Conditions

Pressure 30.31 in
Visibility 10.0 miles
Clouds Overcast 9000 ft
Windchill 21 °F
Dew Point 18 °F
Humidity 64%
Rainfall 0.00 in
Snow Depth Not available.
UV 0 out of 16
Pollen 9.00 out of 12
Air Quality Not available.
Flu Activity Sporadic
METAR KHCO 181153Z AUTO 12006KT 10SM OVC090 M02/M08 A3031 RMK AO2

More Conditions Fewer Conditions

10-Day Forecast

Almanac

Astronomy

Apr. 18, 2014 Rise Set
Actual Time 6:31 AM CDT 8:23 PM CDT
Civil Twilight 5:58 AM CDT 8:57 PM CDT
Nautical Twilight 5:16 AM CDT 9:38 PM CDT
Astronomical Twilight 4:31 AM CDT 10:24 PM CDT
Moon No Moon Rise 8:43 AM CDT
Length of Visible Light 14h 59m
Length of Day
13h 52m
Tomorrow will be 3m 23s longer.
Waning Gibbous, 88% of the Moon is Illuminated
Today
Waning Gibbous
Apr 22
Last Quarter
Apr 29
New
May 6
First Quarter
May 14
Full

Today's Extremes

State Highs State Lows

Community

  • SUNRISE THROUGH THE TREES.
    SUNRISE THROUGH THE TREES.
  • Dog Wood Blossoms
    Dog Wood Blossoms
  • Morning Light
    Morning Light
  • New Day
    New Day
  • Lake Michigan Sunrise
    Lake Michigan Sunrise

WunderPhotos

Upload Photos

1,702,339 photos uploaded!

Nearby

Snow Depth

Station Depth Elevation
No new snow has been reported.

Coastal Water Temperatures

Place Temperature
No Stations Reporting

Earthquake Activity

City Distance Mag. Time & Date
No recent earthquake activity has been reported nearby.
Minimum magnitude displayed is 2.5.

Nearby Weather Stations

Station Location Temp. Windchill Dew Point Humidity Wind Precip. Elev Updated Type
RAWS KITTSON MN, Karlstad, MN 25 °F 20 °F 12 °F 56% ESE  at  4 mph 0.00 in / hr 1060 ft 6:32 AM CDT MADIS

Show More Stations Show Fewer Stations

What do you think?

We're not finished. Please let us know what you like, what you don't like, and what you are still missing.